Flight Track Log - Related Links

Times and Time Zones

All times are in EST time to prevent confusion due to time zone crossing. See the UAL262 flight status page for this flight to view local times or setup timezone preferences in your user account.

Time Position Orientation Groundspeed Altitude Reporting Facility
EST Latitude Longitude Course Direction KTS MPH feet Rate Location/Type
Fri 06:04:26 PM 38.8667 -77.4333 218° Southwest 201 231 3,100  Level Potomac TRACON
Fri 06:05:20 PM 38.8000 -77.4500 191° South 255 293 5,400 2,789 Climbing Potomac TRACON
Fri 06:06:20 PM 38.7333 -77.4667 191° South 280 322 8,400 2,333 Climbing Potomac TRACON
Fri 06:07:26 PM 38.6667 -77.5333 218° Southwest 303 349 10,300 1,857 Climbing Potomac TRACON
Fri 06:08:26 PM 38.5833 -77.6000 212° Southwest 373 429 12,300 2,160 Climbing Potomac TRACON
Fri 06:09:00 PM 38.3907 -77.7546 218° Southwest  Level Estimated
Fri 06:09:56 PM 38.4631 -77.7183 218° Southwest 379 436 15,700  Level Washington Center
Fri 06:10:54 PM 38.3781 -77.8033 218° Southwest 379 436 17,700 1,831 Climbing Washington Center
Fri 06:11:54 PM 38.2889 -77.8878 217° Southwest 390 449 19,300 1,736 Climbing Washington Center
Fri 06:12:55 PM 38.1975 -77.9750 217° Southwest 405 466 21,200 1,623 Climbing Washington Center
Fri 06:13:56 PM 38.1189 -78.0517 218° Southwest 405 466 22,600 1,488 Climbing Washington Center
Fri 06:14:56 PM 38.0272 -78.1408 217° Southwest 405 466 24,200 1,664 Climbing Washington Center
Fri 06:15:55 PM 37.9314 -78.2350 218° Southwest 405 466 25,900 900 Climbing Washington Center
Fri 06:16:56 PM 37.8419 -78.3186 216° Southwest 399 459 26,000 50 Climbing Washington Center
Fri 06:17:54 PM 37.7544 -78.4047 218° Southwest 399 459 26,000  Level Washington Center
Fri 06:18:54 PM 37.6650 -78.4856 216° Southwest 399 459 26,000  Level Washington Center
Fri 06:19:55 PM 37.5772 -78.5711 218° Southwest 399 459 26,000 150 Level Washington Center
Fri 06:20:54 PM 37.4792 -78.6617 216° Southwest 399 459 26,300 504 Climbing Washington Center
Fri 06:21:54 PM 37.3894 -78.7442 216° Southwest 399 459 27,000 893 Climbing Washington Center
Fri 06:22:55 PM 37.2994 -78.8292 217° Southwest 399 459 28,100 1,230 Climbing Washington Center
Fri 06:23:56 PM 37.2117 -78.9064 215° Southwest 399 459 29,500 958 Climbing Washington Center
Fri 06:24:54 PM 37.1281 -78.9889 218° Southwest 399 459 30,000 254 Climbing Washington Center
Fri 06:25:54 PM 37.0489 -79.0581 215° Southwest 399 459 30,000  Level Washington Center
Fri 06:26:55 PM 36.9653 -79.1375 217° Southwest 399 459 30,000  Level Washington Center
Fri 06:27:56 PM 36.8794 -79.2167 216° Southwest 399 459 30,000  Level Washington Center
Fri 06:28:54 PM 36.7936 -79.2958 216° Southwest 399 459 30,000  Level Washington Center
Fri 06:31:03 PM 36.6069 -79.4639 216° Southwest 403 464 30,000  Level Atlanta Center
Fri 06:32:03 PM 36.5203 -79.5439 217° Southwest 398 458 30,000  Level Atlanta Center
Fri 06:33:03 PM 36.4233 -79.6319 216° Southwest 398 458 30,000  Level Atlanta Center
Fri 06:34:03 PM 36.3344 -79.7142 217° Southwest 398 458 30,000  Level Atlanta Center
Fri 06:35:03 PM 36.2478 -79.7933 216° Southwest 398 458 30,000  Level Atlanta Center
Fri 06:36:03 PM 36.1586 -79.8725 216° Southwest 398 458 30,000  Level Atlanta Center
Fri 06:37:03 PM 36.0775 -79.9436 215° Southwest 398 458 30,000  Level Atlanta Center
Fri 06:38:03 PM 35.9775 -80.0078 207° Southwest 398 458 30,000  Level Atlanta Center
Fri 06:39:03 PM 35.8708 -80.0617 202° Southwest 407 468 30,000  Level Atlanta Center
Fri 06:40:03 PM 35.7661 -80.1153 203° Southwest 413 475 30,000  Level Atlanta Center
Fri 06:41:03 PM 35.6450 -80.1750 202° Southwest 418 481 30,000  Level Atlanta Center
Fri 06:42:03 PM 35.5525 -80.2253 204° Southwest 423 487 30,000  Level Atlanta Center
Fri 06:43:03 PM 35.4458 -80.2786 202° Southwest 418 481 30,000 650 Level Atlanta Center
Fri 06:44:03 PM 35.3408 -80.3292 201° Southwest 412 474 31,300 1,000 Climbing Atlanta Center
Fri 06:45:03 PM 35.2381 -80.3822 203° Southwest 406 467 32,000 214 Climbing Atlanta Center
Fri 06:47:19 PM 34.9861 -80.5058 202° Southwest 417 480 32,000  Level Jacksonville Center
Fri 06:48:19 PM 34.8808 -80.5569 202° Southwest 417 480 32,000 555 Level Jacksonville Center
Fri 06:49:18 PM 34.7839 -80.6100 204° Southwest 407 468 33,100 1,008 Climbing Jacksonville Center
Fri 06:50:18 PM 34.6928 -80.6528 201° Southwest 390 449 34,000 446 Climbing Jacksonville Center
Fri 06:51:19 PM 34.5789 -80.7036 200° South 395 455 34,000  Level Jacksonville Center
Fri 06:52:19 PM 34.4775 -80.7517 201° Southwest 401 461 34,000  Level Jacksonville Center
Fri 06:53:19 PM 34.3700 -80.8147 206° Southwest 401 461 34,000  Level Jacksonville Center
Fri 06:54:19 PM 34.2914 -80.8442 197° South 406 467 34,000  Level Jacksonville Center
Fri 06:55:19 PM 34.1817 -80.8994 203° Southwest 401 461 34,000 -50 Level Jacksonville Center
Fri 06:56:19 PM 34.0761 -80.9519 202° Southwest 401 461 33,900  Descending Jacksonville Center
Fri 06:57:19 PM 33.9725 -80.9994 201° Southwest 401 461 34,000 50 Climbing Jacksonville Center
Fri 06:58:18 PM 33.8586 -81.0544 202° Southwest 401 461 34,000  Level Jacksonville Center
Fri 06:59:19 PM 33.7528 -81.1067 202° Southwest 406 467 34,000  Level Jacksonville Center
Fri 07:00:19 PM 33.6575 -81.1558 203° Southwest 414 476 34,000  Level Jacksonville Center
Fri 07:01:19 PM 33.5539 -81.2053 202° Southwest 414 476 34,000 -50 Level Jacksonville Center
Fri 07:02:19 PM 33.4481 -81.2569 202° Southwest 414 476 33,900 -50 Descending Jacksonville Center
Fri 07:03:19 PM 33.3422 -81.3089 202° Southwest 414 476 33,900 50 Level Jacksonville Center
Fri 07:04:18 PM 33.2364 -81.3603 202° Southwest 414 476 34,000 50 Climbing Jacksonville Center
Fri 07:05:19 PM 33.1306 -81.4142 203° Southwest 414 476 34,000  Level Jacksonville Center
Fri 07:06:19 PM 33.0228 -81.4656 202° Southwest 414 476 34,000  Level Jacksonville Center
Fri 07:07:18 PM 32.9169 -81.5167 202° Southwest 414 476 34,000  Level Jacksonville Center
Fri 07:08:19 PM 32.8108 -81.5678 202° Southwest 414 476 34,000 -50 Level Jacksonville Center
Fri 07:09:19 PM 32.7028 -81.6186 202° Southwest 419 482 33,900  Descending Jacksonville Center
Fri 07:10:18 PM 32.5908 -81.6769 204° Southwest 408 470 34,000 -150 Climbing Jacksonville Center
Fri 07:11:19 PM 32.4931 -81.7225 201° Southwest 414 476 33,600 -694 Descending Jacksonville Center
Fri 07:12:19 PM 32.3808 -81.7758 202° Southwest 409 471 32,600 -807 Descending Jacksonville Center
Fri 07:13:18 PM 32.2853 -81.8211 202° Southwest 414 476 32,000 -300 Descending Jacksonville Center
Fri 07:14:19 PM 32.1686 -81.8789 203° Southwest 414 476 32,000  Level Jacksonville Center
Fri 07:15:18 PM 32.0625 -81.9267 201° Southwest 414 476 32,000  Level Jacksonville Center
Fri 07:16:19 PM 31.9669 -81.9694 201° Southwest 414 476 32,000  Level Jacksonville Center
Fri 07:17:19 PM 31.8483 -82.0194 200° South 409 471 32,000  Level Jacksonville Center
Fri 07:18:19 PM 31.7483 -82.0594 199° South 410 472 32,000  Level Jacksonville Center
Fri 07:19:18 PM 31.6317 -82.1069 199° South 410 472 32,000 -50 Level Jacksonville Center
Fri 07:20:18 PM 31.5339 -82.1492 200° South 410 472 31,900  Descending Jacksonville Center
Fri 07:21:18 PM 31.4233 -82.1889 197° South 410 472 32,000 50 Climbing Jacksonville Center
Fri 07:22:18 PM 31.3172 -82.2336 200° South 415 478 32,000  Level Jacksonville Center
Fri 07:23:19 PM 31.2089 -82.2756 198° South 415 478 32,000 -50 Level Jacksonville Center
Fri 07:24:18 PM 31.1025 -82.3200 200° South 410 472 31,900 -50 Descending Jacksonville Center
Fri 07:25:18 PM 30.9919 -82.3619 198° South 410 472 31,900 50 Level Jacksonville Center
Fri 07:26:18 PM 30.8836 -82.4061 199° South 410 472 32,000 50 Climbing Jacksonville Center
Fri 07:27:18 PM 30.7753 -82.4453 197° South 410 472 32,000  Level Jacksonville Center
Fri 07:28:18 PM 30.6667 -82.4917 200° South 415 478 32,000  Level Jacksonville Center
Fri 07:29:18 PM 30.5542 -82.5308 197° South 415 478 32,000 -150 Level Jacksonville Center
Fri 07:30:18 PM 30.4372 -82.5094 171° South 420 483 31,700 -700 Descending Jacksonville Center
Fri 07:31:18 PM 30.3469 -82.3967 133° Southeast 409 471 30,600 -1,140 Descending Jacksonville Center
Fri 07:32:19 PM 30.2628 -82.2528 124° Southeast 460 529 29,400 -1,041 Descending Jacksonville Center
Fri 07:33:19 PM 30.1436 -82.2128 164° South 445 512 28,500 -958 Descending Jacksonville Center
Fri 07:34:18 PM 30.0289 -82.2400 192° South 417 480 27,500 -800 Descending Jacksonville Center
Fri 07:35:19 PM 29.9164 -82.2744 195° South 422 486 26,900 -533 Descending Jacksonville Center
Fri 07:37:18 PM 29.6911 -82.3283 192° South 427 491 25,900 -667 Descending Jacksonville Center
Fri 07:38:19 PM 29.5764 -82.3528 190° South 427 491 24,900 -992 Descending Jacksonville Center
Fri 07:39:19 PM 29.4617 -82.3439 176° South 422 486 23,900 -1,008 Descending Jacksonville Center
Fri 07:40:18 PM 29.3508 -82.3303 174° South 417 480 22,900 -1,059 Descending Jacksonville Center
Fri 07:41:18 PM 29.2381 -82.3167 174° South 417 480 21,800 -1,587 Descending Jacksonville Center
Fri 07:42:19 PM 29.1294 -82.3056 175° South 411 473 19,700 -1,934 Descending Jacksonville Center
Fri 07:43:19 PM 29.0250 -82.2917 173° South 393 452 17,900 -2,050 Descending Jacksonville Center
Fri 07:44:19 PM 28.9247 -82.2781 173° South 382 440 15,600 -1,861 Descending Jacksonville Center
Fri 07:45:57 PM 28.7667 -82.2667 176° South 355 409 13,000 -951 Descending Tampa TRACON
Fri 07:47:03 PM 28.6500 -82.2500 173° South 352 405 13,000 -857 Level Tampa TRACON
Fri 07:48:03 PM 28.5500 -82.2500 180° South 347 399 11,200 -1,000 Descending Tampa TRACON
Fri 07:49:03 PM 28.4667 -82.2500 180° South 341 392 11,000 -100 Descending Tampa TRACON
Fri 07:50:03 PM 28.3667 -82.2833 196° South 334 384 11,000 -250 Level Tampa TRACON
Fri 07:51:03 PM 28.2833 -82.3167 199° South 321 369 10,500 -1,318 Descending Tampa TRACON
Fri 07:52:15 PM 28.1833 -82.3500 196° South 282 325 8,100 -2,050 Descending Tampa TRACON
Fri 07:53:03 PM 28.1333 -82.3667 196° South 281 323 6,400 -1,632 Descending Tampa TRACON
Fri 07:54:09 PM 28.0500 -82.4000 199° South 271 312 5,000 -667 Descending Tampa TRACON
Fri 07:55:09 PM 27.9833 -82.4167 192° South 254 292 5,000 -500 Level Tampa TRACON
Fri 07:56:09 PM 27.9167 -82.4167 180° South 232 267 4,000 -1,000 Descending Tampa TRACON
Fri 07:57:09 PM 27.8667 -82.4500 211° Southwest 213 245 3,000 -942 Descending Tampa TRACON
Fri 07:58:10 PM 27.8500 -82.5167 254° West 208 239 2,100 -762 Descending Tampa TRACON
Fri 07:59:15 PM 27.9000 -82.5500 329° Northwest 142 163 1,400 -611 Descending Tampa TRACON
Fri 07:59:58 PM 27.9167 -82.5500 360° North 123 142 1,000 -558 Descending Tampa TRACON

Login

Don't have an account? Register now (free) for customized features, flight alerts, and more!